sensor_id;sensor_type;location;lat;lon;timestamp;pressure;altitude;pressure_sealevel;temperature;humidity
65756;BME280;52489;47.502;18.940;2022-09-13T00:01:02;98084.59;;;11.09;71.04
65756;BME280;52489;47.502;18.940;2022-09-13T00:02:05;98082.19;;;10.99;71.35
65756;BME280;52489;47.502;18.940;2022-09-13T00:03:10;98078.47;;;11.00;71.37
65756;BME280;52489;47.502;18.940;2022-09-13T00:04:13;98083.38;;;10.93;71.60
65756;BME280;52489;47.502;18.940;2022-09-13T00:05:16;98081.91;;;11.01;71.52
65756;BME280;52489;47.502;18.940;2022-09-13T00:06:20;98087.84;;;10.92;71.20
65756;BME280;52489;47.502;18.940;2022-09-13T00:07:23;98085.63;;;10.86;71.15
65756;BME280;52489;47.502;18.940;2022-09-13T00:08:28;98084.38;;;10.83;70.83
65756;BME280;52489;47.502;18.940;2022-09-13T00:09:30;98080.59;;;10.76;70.80
65756;BME280;52489;47.502;18.940;2022-09-13T00:10:34;98082.16;;;10.77;70.74
65756;BME280;52489;47.502;18.940;2022-09-13T00:11:37;98083.28;;;10.84;70.63
65756;BME280;52489;47.502;18.940;2022-09-13T00:12:40;98087.28;;;10.82;70.90
65756;BME280;52489;47.502;18.940;2022-09-13T00:13:44;98089.50;;;10.88;71.11
65756;BME280;52489;47.502;18.940;2022-09-13T00:14:48;98086.31;;;10.91;71.51
65756;BME280;52489;47.502;18.940;2022-09-13T00:15:50;98087.53;;;10.94;71.44
65756;BME280;52489;47.502;18.940;2022-09-13T00:16:53;98086.16;;;10.97;71.54
65756;BME280;52489;47.502;18.940;2022-09-13T00:17:56;98085.31;;;11.01;71.27
65756;BME280;52489;47.502;18.940;2022-09-13T00:19:03;98085.50;;;10.91;71.75
65756;BME280;52489;47.502;18.940;2022-09-13T00:20:07;98090.41;;;10.70;72.12
65756;BME280;52489;47.502;18.940;2022-09-13T00:21:13;98089.25;;;10.62;72.59
65756;BME280;52489;47.502;18.940;2022-09-13T00:22:16;98081.69;;;10.75;71.87
65756;BME280;52489;47.502;18.940;2022-09-13T00:23:19;98086.44;;;10.73;71.84
65756;BME280;52489;47.502;18.940;2022-09-13T00:24:22;98084.50;;;10.64;71.98
65756;BME280;52489;47.502;18.940;2022-09-13T00:25:25;98082.47;;;10.61;72.39
65756;BME280;52489;47.502;18.940;2022-09-13T00:26:28;98086.94;;;10.61;72.69
65756;BME280;52489;47.502;18.940;2022-09-13T00:27:34;98082.25;;;10.72;72.45
65756;BME280;52489;47.502;18.940;2022-09-13T00:28:38;98080.06;;;10.65;72.63
65756;BME280;52489;47.502;18.940;2022-09-13T00:29:41;98084.03;;;10.62;72.66
65756;BME280;52489;47.502;18.940;2022-09-13T00:30:43;98083.91;;;10.67;72.37
65756;BME280;52489;47.502;18.940;2022-09-13T00:31:46;98080.19;;;10.82;71.78
65756;BME280;52489;47.502;18.940;2022-09-13T00:32:49;98082.81;;;10.82;71.69
65756;BME280;52489;47.502;18.940;2022-09-13T00:33:51;98077.88;;;10.81;71.89
65756;BME280;52489;47.502;18.940;2022-09-13T00:34:54;98079.81;;;10.89;71.67
65756;BME280;52489;47.502;18.940;2022-09-13T00:35:57;98077.47;;;10.87;71.74
65756;BME280;52489;47.502;18.940;2022-09-13T00:36:59;98075.63;;;10.88;71.92
65756;BME280;52489;47.502;18.940;2022-09-13T00:38:02;98076.53;;;10.69;72.59
65756;BME280;52489;47.502;18.940;2022-09-13T00:39:04;98080.59;;;10.76;72.41
65756;BME280;52489;47.502;18.940;2022-09-13T00:40:09;98075.34;;;10.76;72.26
65756;BME280;52489;47.502;18.940;2022-09-13T00:41:14;98082.78;;;10.60;72.78
65756;BME280;52489;47.502;18.940;2022-09-13T00:42:27;98080.69;;;10.70;72.66
65756;BME280;52489;47.502;18.940;2022-09-13T00:43:54;98071.31;;;10.56;72.95
65756;BME280;52489;47.502;18.940;2022-09-13T00:45:00;98078.03;;;10.34;74.04
65756;BME280;52489;47.502;18.940;2022-09-13T00:46:04;98077.63;;;10.41;74.02
65756;BME280;52489;47.502;18.940;2022-09-13T00:47:07;98080.47;;;10.44;73.83
65756;BME280;52489;47.502;18.940;2022-09-13T00:48:20;98077.84;;;10.44;73.92
65756;BME280;52489;47.502;18.940;2022-09-13T00:49:35;98082.31;;;10.30;74.42
65756;BME280;52489;47.502;18.940;2022-09-13T00:50:42;98083.44;;;10.38;73.76
65756;BME280;52489;47.502;18.940;2022-09-13T00:51:59;98071.81;;;10.44;73.48
65756;BME280;52489;47.502;18.940;2022-09-13T00:53:27;98073.34;;;10.59;73.31
65756;BME280;52489;47.502;18.940;2022-09-13T00:54:39;98068.69;;;10.56;73.24
65756;BME280;52489;47.502;18.940;2022-09-13T00:56:58;98071.44;;;10.51;73.79
65756;BME280;52489;47.502;18.940;2022-09-13T00:58:08;98073.66;;;10.57;73.56
65756;BME280;52489;47.502;18.940;2022-09-13T00:59:26;98081.00;;;10.55;73.23
65756;BME280;52489;47.502;18.940;2022-09-13T01:00:32;98072.78;;;10.34;73.48
65756;BME280;52489;47.502;18.940;2022-09-13T01:01:48;98081.50;;;10.43;73.20
65756;BME280;52489;47.502;18.940;2022-09-13T01:02:57;98079.59;;;10.35;73.24
65756;BME280;52489;47.502;18.940;2022-09-13T01:04:02;98075.31;;;10.39;73.00
65756;BME280;52489;47.502;18.940;2022-09-13T01:05:06;98073.25;;;10.22;73.53
65756;BME280;52489;47.502;18.940;2022-09-13T01:06:12;98074.06;;;10.37;73.39
65756;BME280;52489;47.502;18.940;2022-09-13T01:07:18;98072.69;;;10.39;73.41
65756;BME280;52489;47.502;18.940;2022-09-13T01:08:21;98071.66;;;10.27;73.89
65756;BME280;52489;47.502;18.940;2022-09-13T01:09:24;98072.97;;;10.24;73.88
65756;BME280;52489;47.502;18.940;2022-09-13T01:10:27;98073.28;;;10.36;73.89
65756;BME280;52489;47.502;18.940;2022-09-13T01:12:51;98077.03;;;10.44;74.11
65756;BME280;52489;47.502;18.940;2022-09-13T01:13:57;98074.63;;;10.34;74.04
65756;BME280;52489;47.502;18.940;2022-09-13T01:15:02;98072.87;;;10.29;74.08
65756;BME280;52489;47.502;18.940;2022-09-13T01:16:06;98078.53;;;10.36;73.82
65756;BME280;52489;47.502;18.940;2022-09-13T01:17:09;98075.22;;;10.31;73.97
65756;BME280;52489;47.502;18.940;2022-09-13T01:18:12;98073.75;;;10.24;74.27
65756;BME280;52489;47.502;18.940;2022-09-13T01:19:15;98080.53;;;10.25;74.48
65756;BME280;52489;47.502;18.940;2022-09-13T01:20:19;98075.81;;;10.28;74.48
65756;BME280;52489;47.502;18.940;2022-09-13T01:22:50;98068.62;;;10.33;74.30
65756;BME280;52489;47.502;18.940;2022-09-13T01:31:11;98070.25;;;10.43;73.99
65756;BME280;52489;47.502;18.940;2022-09-13T01:34:54;98068.00;;;10.22;74.70
65756;BME280;52489;47.502;18.940;2022-09-13T01:36:48;98067.38;;;10.31;74.59
65756;BME280;52489;47.502;18.940;2022-09-13T01:38:22;98059.88;;;10.24;74.76
65756;BME280;52489;47.502;18.940;2022-09-13T01:39:35;98068.09;;;10.17;75.06
65756;BME280;52489;47.502;18.940;2022-09-13T01:44:46;98071.59;;;9.99;75.94
65756;BME280;52489;47.502;18.940;2022-09-13T01:48:24;98072.00;;;10.06;75.84
65756;BME280;52489;47.502;18.940;2022-09-13T01:51:15;98065.41;;;10.09;75.97
65756;BME280;52489;47.502;18.940;2022-09-13T01:53:47;98064.91;;;10.07;76.51
65756;BME280;52489;47.502;18.940;2022-09-13T01:54:59;98057.66;;;10.03;76.49
65756;BME280;52489;47.502;18.940;2022-09-13T01:56:19;98061.00;;;9.90;77.26
65756;BME280;52489;47.502;18.940;2022-09-13T01:58:02;98053.38;;;10.08;76.51
65756;BME280;52489;47.502;18.940;2022-09-13T01:59:02;98058.78;;;10.11;76.28
65756;BME280;52489;47.502;18.940;2022-09-13T02:00:13;98060.56;;;10.16;76.19
65756;BME280;52489;47.502;18.940;2022-09-13T02:01:36;98051.34;;;10.05;76.67
65756;BME280;52489;47.502;18.940;2022-09-13T02:04:41;98059.34;;;9.80;77.31
65756;BME280;52489;47.502;18.940;2022-09-13T02:05:58;98057.63;;;9.90;76.76
65756;BME280;52489;47.502;18.940;2022-09-13T02:07:10;98066.75;;;9.92;76.72
65756;BME280;52489;47.502;18.940;2022-09-13T02:08:36;98051.22;;;9.96;76.33
65756;BME280;52489;47.502;18.940;2022-09-13T02:09:44;98055.50;;;10.06;75.81
65756;BME280;52489;47.502;18.940;2022-09-13T02:11:12;98049.50;;;9.91;75.95
65756;BME280;52489;47.502;18.940;2022-09-13T02:12:24;98053.38;;;9.94;76.10
65756;BME280;52489;47.502;18.940;2022-09-13T02:13:35;98056.66;;;10.13;75.49
65756;BME280;52489;47.502;18.940;2022-09-13T02:14:41;98053.75;;;10.01;75.69
65756;BME280;52489;47.502;18.940;2022-09-13T02:15:47;98053.69;;;10.06;75.86
65756;BME280;52489;47.502;18.940;2022-09-13T02:17:09;98054.53;;;10.01;76.01
65756;BME280;52489;47.502;18.940;2022-09-13T02:18:38;98057.03;;;9.93;76.32
65756;BME280;52489;47.502;18.940;2022-09-13T02:19:52;98050.53;;;9.90;76.58
65756;BME280;52489;47.502;18.940;2022-09-13T02:21:01;98049.84;;;9.85;76.70
65756;BME280;52489;47.502;18.940;2022-09-13T02:22:11;98043.09;;;9.97;76.29
65756;BME280;52489;47.502;18.940;2022-09-13T02:23:35;98047.06;;;9.81;76.73
65756;BME280;52489;47.502;18.940;2022-09-13T02:24:41;98044.53;;;9.90;76.36
65756;BME280;52489;47.502;18.940;2022-09-13T02:25:48;98046.56;;;9.93;76.02
65756;BME280;52489;47.502;18.940;2022-09-13T02:26:58;98044.25;;;9.91;76.47
65756;BME280;52489;47.502;18.940;2022-09-13T02:28:08;98039.12;;;9.86;76.84
65756;BME280;52489;47.502;18.940;2022-09-13T02:29:16;98039.63;;;9.88;77.09
65756;BME280;52489;47.502;18.940;2022-09-13T02:30:21;98041.34;;;9.93;77.10
65756;BME280;52489;47.502;18.940;2022-09-13T02:31:28;98039.31;;;9.90;77.12
65756;BME280;52489;47.502;18.940;2022-09-13T02:32:36;98037.84;;;9.84;77.26
65756;BME280;52489;47.502;18.940;2022-09-13T02:33:48;98041.63;;;9.77;77.47
65756;BME280;52489;47.502;18.940;2022-09-13T02:34:57;98046.19;;;9.86;77.09
65756;BME280;52489;47.502;18.940;2022-09-13T02:36:09;98041.25;;;9.70;77.60
65756;BME280;52489;47.502;18.940;2022-09-13T02:37:14;98033.59;;;9.74;77.57
65756;BME280;52489;47.502;18.940;2022-09-13T02:38:31;98045.09;;;9.73;77.52
65756;BME280;52489;47.502;18.940;2022-09-13T02:39:37;98040.72;;;9.54;78.47
65756;BME280;52489;47.502;18.940;2022-09-13T02:40:47;98039.19;;;9.67;78.17
65756;BME280;52489;47.502;18.940;2022-09-13T02:43:08;98045.00;;;9.78;77.62
65756;BME280;52489;47.502;18.940;2022-09-13T02:44:30;98043.84;;;9.84;77.35
65756;BME280;52489;47.502;18.940;2022-09-13T02:45:44;98037.16;;;9.78;77.46
65756;BME280;52489;47.502;18.940;2022-09-13T02:48:15;98038.22;;;9.63;78.21
65756;BME280;52489;47.502;18.940;2022-09-13T02:51:02;98034.28;;;9.33;79.37
65756;BME280;52489;47.502;18.940;2022-09-13T02:57:30;98022.03;;;9.61;77.87
65756;BME280;52489;47.502;18.940;2022-09-13T02:59:03;98025.22;;;9.58;77.79
65756;BME280;52489;47.502;18.940;2022-09-13T03:00:08;98022.50;;;9.63;77.34
65756;BME280;52489;47.502;18.940;2022-09-13T03:01:12;98022.81;;;9.62;77.80
65756;BME280;52489;47.502;18.940;2022-09-13T03:02:17;98025.44;;;9.62;78.21
65756;BME280;52489;47.502;18.940;2022-09-13T03:03:23;98025.63;;;9.65;78.50
65756;BME280;52489;47.502;18.940;2022-09-13T03:04:27;98022.25;;;9.65;78.66
65756;BME280;52489;47.502;18.940;2022-09-13T03:05:30;98030.66;;;9.62;78.87
65756;BME280;52489;47.502;18.940;2022-09-13T03:06:32;98021.56;;;9.73;78.68
65756;BME280;52489;47.502;18.940;2022-09-13T03:07:35;98027.13;;;9.85;78.34
65756;BME280;52489;47.502;18.940;2022-09-13T03:08:43;98016.06;;;9.88;77.97
65756;BME280;52489;47.502;18.940;2022-09-13T03:09:53;98009.84;;;9.84;78.31
65756;BME280;52489;47.502;18.940;2022-09-13T03:15:23;98018.84;;;9.78;78.27
65756;BME280;52489;47.502;18.940;2022-09-13T03:17:15;98016.66;;;9.85;77.81
65756;BME280;52489;47.502;18.940;2022-09-13T03:18:20;98009.56;;;9.86;77.53
65756;BME280;52489;47.502;18.940;2022-09-13T03:21:04;98015.38;;;9.96;77.01
65756;BME280;52489;47.502;18.940;2022-09-13T03:27:10;98011.31;;;9.90;77.40
65756;BME280;52489;47.502;18.940;2022-09-13T03:31:01;98000.06;;;9.90;76.96
65756;BME280;52489;47.502;18.940;2022-09-13T03:33:58;97999.88;;;9.86;77.49
65756;BME280;52489;47.502;18.940;2022-09-13T03:35:16;97998.91;;;9.82;77.31
65756;BME280;52489;47.502;18.940;2022-09-13T03:36:34;97996.87;;;9.79;76.75
65756;BME280;52489;47.502;18.940;2022-09-13T03:38:01;97998.69;;;9.78;76.77
65756;BME280;52489;47.502;18.940;2022-09-13T03:39:13;97988.72;;;9.80;76.96
65756;BME280;52489;47.502;18.940;2022-09-13T03:40:27;97989.13;;;9.74;77.30
65756;BME280;52489;47.502;18.940;2022-09-13T03:41:39;97988.63;;;9.86;77.07
65756;BME280;52489;47.502;18.940;2022-09-13T03:42:51;97989.59;;;9.76;77.36
65756;BME280;52489;47.502;18.940;2022-09-13T03:43:58;97989.97;;;9.69;77.14
65756;BME280;52489;47.502;18.940;2022-09-13T03:45:04;97989.31;;;9.77;77.46
65756;BME280;52489;47.502;18.940;2022-09-13T03:46:13;97992.59;;;9.83;77.39
65756;BME280;52489;47.502;18.940;2022-09-13T03:47:17;97990.00;;;9.83;77.31
65756;BME280;52489;47.502;18.940;2022-09-13T03:48:21;97979.63;;;9.78;77.42
65756;BME280;52489;47.502;18.940;2022-09-13T03:49:26;97990.56;;;9.80;77.24
65756;BME280;52489;47.502;18.940;2022-09-13T03:50:30;97989.81;;;9.79;77.47
65756;BME280;52489;47.502;18.940;2022-09-13T03:51:34;97991.66;;;9.79;77.44
65756;BME280;52489;47.502;18.940;2022-09-13T03:52:38;97988.13;;;9.84;77.22
65756;BME280;52489;47.502;18.940;2022-09-13T03:53:53;97986.78;;;9.86;76.96
65756;BME280;52489;47.502;18.940;2022-09-13T03:55:00;97994.44;;;9.96;76.24
65756;BME280;52489;47.502;18.940;2022-09-13T03:56:15;97994.81;;;9.90;76.72
65756;BME280;52489;47.502;18.940;2022-09-13T03:57:21;97993.84;;;9.72;76.69
65756;BME280;52489;47.502;18.940;2022-09-13T03:58:25;97992.59;;;9.69;76.94
65756;BME280;52489;47.502;18.940;2022-09-13T03:59:29;97983.81;;;9.79;76.75
65756;BME280;52489;47.502;18.940;2022-09-13T04:00:32;97992.69;;;9.78;76.53
65756;BME280;52489;47.502;18.940;2022-09-13T04:01:35;97996.97;;;9.74;76.93
65756;BME280;52489;47.502;18.940;2022-09-13T04:02:38;97990.28;;;9.68;77.28
65756;BME280;52489;47.502;18.940;2022-09-13T04:03:40;97997.16;;;9.77;76.92
65756;BME280;52489;47.502;18.940;2022-09-13T04:04:44;97992.78;;;9.73;76.81
65756;BME280;52489;47.502;18.940;2022-09-13T04:05:47;97998.97;;;9.63;76.51
65756;BME280;52489;47.502;18.940;2022-09-13T04:06:50;97989.28;;;9.64;76.63
65756;BME280;52489;47.502;18.940;2022-09-13T04:07:52;97993.09;;;9.71;76.46
65756;BME280;52489;47.502;18.940;2022-09-13T04:08:55;97988.81;;;9.75;76.46
65756;BME280;52489;47.502;18.940;2022-09-13T04:09:58;97993.69;;;9.82;76.05
65756;BME280;52489;47.502;18.940;2022-09-13T04:11:04;97994.25;;;9.79;75.71
65756;BME280;52489;47.502;18.940;2022-09-13T04:12:07;97990.16;;;9.73;75.49
65756;BME280;52489;47.502;18.940;2022-09-13T04:13:11;97993.09;;;9.71;75.78
65756;BME280;52489;47.502;18.940;2022-09-13T04:14:14;97995.97;;;9.70;76.42
65756;BME280;52489;47.502;18.940;2022-09-13T04:15:17;97995.91;;;9.89;76.24
65756;BME280;52489;47.502;18.940;2022-09-13T04:16:20;97997.16;;;9.91;76.44
65756;BME280;52489;47.502;18.940;2022-09-13T04:17:22;97994.56;;;9.91;76.48
65756;BME280;52489;47.502;18.940;2022-09-13T04:18:25;97997.16;;;9.91;76.37
65756;BME280;52489;47.502;18.940;2022-09-13T04:19:28;97990.28;;;9.95;76.19
65756;BME280;52489;47.502;18.940;2022-09-13T04:20:31;97990.56;;;9.80;76.80
65756;BME280;52489;47.502;18.940;2022-09-13T04:21:33;98000.75;;;9.68;77.03
65756;BME280;52489;47.502;18.940;2022-09-13T04:22:37;97986.97;;;9.62;76.79
65756;BME280;52489;47.502;18.940;2022-09-13T04:23:42;98000.72;;;9.54;77.65
65756;BME280;52489;47.502;18.940;2022-09-13T04:24:45;97995.22;;;9.55;77.83
65756;BME280;52489;47.502;18.940;2022-09-13T04:25:48;97995.69;;;9.71;77.38
65756;BME280;52489;47.502;18.940;2022-09-13T04:26:52;98001.03;;;9.80;76.60
65756;BME280;52489;47.502;18.940;2022-09-13T04:27:57;97996.06;;;9.78;76.62
65756;BME280;52489;47.502;18.940;2022-09-13T04:29:01;97997.94;;;9.78;76.99
65756;BME280;52489;47.502;18.940;2022-09-13T04:30:04;97993.78;;;9.77;76.60
65756;BME280;52489;47.502;18.940;2022-09-13T04:31:07;97993.28;;;9.75;76.45
65756;BME280;52489;47.502;18.940;2022-09-13T04:32:10;97997.34;;;9.81;76.41
65756;BME280;52489;47.502;18.940;2022-09-13T04:33:14;97994.44;;;9.83;76.22
65756;BME280;52489;47.502;18.940;2022-09-13T04:34:17;98002.84;;;9.66;76.76
65756;BME280;52489;47.502;18.940;2022-09-13T04:35:20;98001.91;;;9.62;76.94
65756;BME280;52489;47.502;18.940;2022-09-13T04:36:23;97998.13;;;9.68;76.87
65756;BME280;52489;47.502;18.940;2022-09-13T04:37:25;97996.19;;;9.73;76.75
65756;BME280;52489;47.502;18.940;2022-09-13T04:38:28;98001.78;;;9.67;77.12
65756;BME280;52489;47.502;18.940;2022-09-13T04:39:33;98003.63;;;9.66;77.30
65756;BME280;52489;47.502;18.940;2022-09-13T04:40:36;98000.62;;;9.73;77.04
65756;BME280;52489;47.502;18.940;2022-09-13T04:41:43;98001.00;;;9.66;77.03
65756;BME280;52489;47.502;18.940;2022-09-13T04:42:48;98005.97;;;9.68;77.02
65756;BME280;52489;47.502;18.940;2022-09-13T04:43:50;97999.84;;;9.72;77.05
65756;BME280;52489;47.502;18.940;2022-09-13T04:44:53;98006.75;;;9.82;76.83
65756;BME280;52489;47.502;18.940;2022-09-13T04:46:00;98006.75;;;9.82;76.79
65756;BME280;52489;47.502;18.940;2022-09-13T04:47:03;98007.81;;;9.95;76.45
65756;BME280;52489;47.502;18.940;2022-09-13T04:48:11;97999.78;;;9.91;76.43
65756;BME280;52489;47.502;18.940;2022-09-13T04:49:14;98001.41;;;10.01;76.18
65756;BME280;52489;47.502;18.940;2022-09-13T04:50:19;98001.41;;;9.87;76.28
65756;BME280;52489;47.502;18.940;2022-09-13T04:51:21;98010.53;;;10.03;76.01
65756;BME280;52489;47.502;18.940;2022-09-13T04:52:25;98007.81;;;10.09;76.05
65756;BME280;52489;47.502;18.940;2022-09-13T04:53:27;98007.81;;;10.09;76.34
65756;BME280;52489;47.502;18.940;2022-09-13T04:54:30;98013.72;;;10.14;76.03
65756;BME280;52489;47.502;18.940;2022-09-13T04:55:33;98016.44;;;10.09;75.77
65756;BME280;52489;47.502;18.940;2022-09-13T04:56:38;98012.37;;;10.03;76.51
65756;BME280;52489;47.502;18.940;2022-09-13T04:57:41;98008.00;;;9.98;76.75
65756;BME280;52489;47.502;18.940;2022-09-13T04:58:44;98009.66;;;10.08;76.46
65756;BME280;52489;47.502;18.940;2022-09-13T04:59:47;98004.63;;;9.98;76.69
65756;BME280;52489;47.502;18.940;2022-09-13T05:00:49;98015.28;;;10.15;76.48
65756;BME280;52489;47.502;18.940;2022-09-13T05:01:58;98010.22;;;10.19;76.20
65756;BME280;52489;47.502;18.940;2022-09-13T05:03:00;98012.66;;;10.15;76.24
65756;BME280;52489;47.502;18.940;2022-09-13T05:04:05;98013.84;;;10.09;76.55
65756;BME280;52489;47.502;18.940;2022-09-13T05:05:08;98017.00;;;10.20;76.17
65756;BME280;52489;47.502;18.940;2022-09-13T05:06:14;98011.31;;;10.18;76.22
65756;BME280;52489;47.502;18.940;2022-09-13T05:07:19;98012.66;;;10.15;76.24
65756;BME280;52489;47.502;18.940;2022-09-13T05:08:21;98015.56;;;10.14;75.74
65756;BME280;52489;47.502;18.940;2022-09-13T05:09:24;98016.06;;;10.16;75.78
65756;BME280;52489;47.502;18.940;2022-09-13T05:10:27;98013.16;;;10.03;75.61
65756;BME280;52489;47.502;18.940;2022-09-13T05:11:30;98016.34;;;10.14;76.28
65756;BME280;52489;47.502;18.940;2022-09-13T05:12:33;98016.81;;;10.16;76.52
65756;BME280;52489;47.502;18.940;2022-09-13T05:13:35;98018.00;;;10.10;76.80
65756;BME280;52489;47.502;18.940;2022-09-13T05:14:38;98021.47;;;10.19;76.59
65756;BME280;52489;47.502;18.940;2022-09-13T05:15:41;98019.16;;;10.18;76.69
65756;BME280;52489;47.502;18.940;2022-09-13T05:16:44;98015.38;;;10.24;76.92
65756;BME280;52489;47.502;18.940;2022-09-13T05:17:46;98012.19;;;10.27;76.60
65756;BME280;52489;47.502;18.940;2022-09-13T05:18:49;98018.84;;;10.19;76.38
65756;BME280;52489;47.502;18.940;2022-09-13T05:19:52;98018.38;;;10.17;76.64
65756;BME280;52489;47.502;18.940;2022-09-13T05:20:56;98028.56;;;10.19;76.97
65756;BME280;52489;47.502;18.940;2022-09-13T05:22:00;98022.75;;;10.22;76.95
65756;BME280;52489;47.502;18.940;2022-09-13T05:23:03;98026.63;;;10.24;77.11
65756;BME280;52489;47.502;18.940;2022-09-13T05:24:05;98024.69;;;10.16;77.68
65756;BME280;52489;47.502;18.940;2022-09-13T05:25:08;98026.03;;;10.14;77.61
65756;BME280;52489;47.502;18.940;2022-09-13T05:26:11;98023.72;;;10.12;77.45
65756;BME280;52489;47.502;18.940;2022-09-13T05:27:14;98024.50;;;10.13;77.95
65756;BME280;52489;47.502;18.940;2022-09-13T05:28:16;98019.53;;;10.25;77.33
65756;BME280;52489;47.502;18.940;2022-09-13T05:29:19;98025.47;;;10.31;76.90
65756;BME280;52489;47.502;18.940;2022-09-13T05:30:22;98019.84;;;10.23;77.40
65756;BME280;52489;47.502;18.940;2022-09-13T05:31:27;98020.31;;;10.25;77.08
65756;BME280;52489;47.502;18.940;2022-09-13T05:32:32;98021.66;;;10.23;76.45
65756;BME280;52489;47.502;18.940;2022-09-13T05:33:37;98023.22;;;10.24;76.56
65756;BME280;52489;47.502;18.940;2022-09-13T05:34:39;98020.97;;;10.17;78.02
65756;BME280;52489;47.502;18.940;2022-09-13T05:35:42;98018.38;;;10.31;77.93
65756;BME280;52489;47.502;18.940;2022-09-13T05:36:45;98018.16;;;10.55;76.90
65756;BME280;52489;47.502;18.940;2022-09-13T05:37:54;98019.91;;;10.60;76.86
65756;BME280;52489;47.502;18.940;2022-09-13T05:38:57;98025.41;;;10.58;77.05
65756;BME280;52489;47.502;18.940;2022-09-13T05:40:05;98018.91;;;10.56;77.08
65756;BME280;52489;47.502;18.940;2022-09-13T05:41:14;98022.53;;;10.60;76.99
65756;BME280;52489;47.502;18.940;2022-09-13T05:42:17;98013.75;;;10.64;77.06
65756;BME280;52489;47.502;18.940;2022-09-13T05:43:20;98014.47;;;10.56;76.69
65756;BME280;52489;47.502;18.940;2022-09-13T05:44:23;98016.88;;;10.53;77.15
65756;BME280;52489;47.502;18.940;2022-09-13T05:45:25;98022.00;;;10.72;77.10
65756;BME280;52489;47.502;18.940;2022-09-13T05:46:28;98014.06;;;10.63;77.30
65756;BME280;52489;47.502;18.940;2022-09-13T05:47:31;98017.94;;;10.65;77.48
65756;BME280;52489;47.502;18.940;2022-09-13T05:48:36;98018.31;;;10.73;77.44
65756;BME280;52489;47.502;18.940;2022-09-13T05:49:39;98021.59;;;10.78;77.41
65756;BME280;52489;47.502;18.940;2022-09-13T05:51:15;98022.53;;;10.82;77.20
65756;BME280;52489;47.502;18.940;2022-09-13T05:52:18;98023.88;;;10.93;77.12
65756;BME280;52489;47.502;18.940;2022-09-13T05:53:21;98027.84;;;10.91;76.98
65756;BME280;52489;47.502;18.940;2022-09-13T05:54:24;98028.66;;;10.91;77.21
65756;BME280;52489;47.502;18.940;2022-09-13T05:55:27;98032.81;;;10.92;77.36
65756;BME280;52489;47.502;18.940;2022-09-13T05:56:30;98029.75;;;10.99;77.03
65756;BME280;52489;47.502;18.940;2022-09-13T05:57:33;98035.59;;;10.96;77.65
65756;BME280;52489;47.502;18.940;2022-09-13T05:58:42;98026.87;;;11.01;77.25
65756;BME280;52489;47.502;18.940;2022-09-13T05:59:45;98030.31;;;11.10;77.17
65756;BME280;52489;47.502;18.940;2022-09-13T06:00:53;98038.25;;;11.19;76.84
65756;BME280;52489;47.502;18.940;2022-09-13T06:01:57;98036.44;;;11.28;72.77
65756;BME280;52489;47.502;18.940;2022-09-13T06:03:00;98025.41;;;11.39;73.34
65756;BME280;52489;47.502;18.940;2022-09-13T06:04:02;98029.34;;;11.51;73.81
65756;BME280;52489;47.502;18.940;2022-09-13T06:05:05;98027.81;;;11.58;73.83
65756;BME280;52489;47.502;18.940;2022-09-13T06:06:09;98026.50;;;11.70;73.44
65756;BME280;52489;47.502;18.940;2022-09-13T06:07:12;98031.66;;;11.83;74.07
65756;BME280;52489;47.502;18.940;2022-09-13T06:08:15;98030.75;;;11.88;74.06
65756;BME280;52489;47.502;18.940;2022-09-13T06:09:18;98035.44;;;12.00;70.13
65756;BME280;52489;47.502;18.940;2022-09-13T06:10:21;98033.00;;;12.12;69.92
65756;BME280;52489;47.502;18.940;2022-09-13T06:11:24;98033.78;;;12.21;69.80
65756;BME280;52489;47.502;18.940;2022-09-13T06:12:27;98036.94;;;12.32;71.62
65756;BME280;52489;47.502;18.940;2022-09-13T06:13:31;98040.66;;;12.40;69.56
65756;BME280;52489;47.502;18.940;2022-09-13T06:14:33;98042.53;;;12.65;65.64
65756;BME280;52489;47.502;18.940;2022-09-13T06:15:36;98037.75;;;12.76;65.18
65756;BME280;52489;47.502;18.940;2022-09-13T06:16:44;98026.63;;;12.88;65.16
65756;BME280;52489;47.502;18.940;2022-09-13T06:17:47;98042.09;;;12.98;65.58
65756;BME280;52489;47.502;18.940;2022-09-13T06:18:49;98035.75;;;13.08;66.08
65756;BME280;52489;47.502;18.940;2022-09-13T06:19:52;98031.88;;;13.14;63.92
65756;BME280;52489;47.502;18.940;2022-09-13T06:21:02;98034.81;;;13.21;63.30
65756;BME280;52489;47.502;18.940;2022-09-13T06:22:04;98032.19;;;13.38;64.48
65756;BME280;52489;47.502;18.940;2022-09-13T06:23:13;98034.03;;;13.47;67.31
65756;BME280;52489;47.502;18.940;2022-09-13T06:24:15;98033.41;;;13.50;67.47
65756;BME280;52489;47.502;18.940;2022-09-13T06:25:18;98039.88;;;13.52;65.18
65756;BME280;52489;47.502;18.940;2022-09-13T06:26:23;98031.44;;;13.76;61.44
65756;BME280;52489;47.502;18.940;2022-09-13T06:27:28;98031.28;;;13.81;60.82
65756;BME280;52489;47.502;18.940;2022-09-13T06:28:32;98028.59;;;13.90;62.57
65756;BME280;52489;47.502;18.940;2022-09-13T06:29:38;98023.16;;;13.95;63.88
65756;BME280;52489;47.502;18.940;2022-09-13T06:30:41;98031.81;;;13.96;61.07
65756;BME280;52489;47.502;18.940;2022-09-13T06:31:44;98025.00;;;14.03;61.87
65756;BME280;52489;47.502;18.940;2022-09-13T06:32:47;98030.97;;;14.13;63.35
65756;BME280;52489;47.502;18.940;2022-09-13T06:33:55;98024.72;;;14.26;59.97
65756;BME280;52489;47.502;18.940;2022-09-13T06:34:59;98031.25;;;14.49;58.61
65756;BME280;52489;47.502;18.940;2022-09-13T06:36:03;98028.16;;;14.47;57.69
65756;BME280;52489;47.502;18.940;2022-09-13T06:37:06;98031.84;;;14.55;58.75
65756;BME280;52489;47.502;18.940;2022-09-13T06:38:09;98037.63;;;14.69;56.86
65756;BME280;52489;47.502;18.940;2022-09-13T06:39:11;98033.00;;;14.66;56.92
65756;BME280;52489;47.502;18.940;2022-09-13T06:40:14;98040.91;;;14.87;56.86
65756;BME280;52489;47.502;18.940;2022-09-13T06:41:22;98038.72;;;14.89;56.76